aviador You're here:

LFOA Decoded Metar

AVORD in FRANCE
Report Time2017-09-22 15:00:00
UTC Time2017-09-22 15:24:32
Flight Rules vfr VFR
Wind290° at 03 kt
W.Decomp.*RWY 24: 1.9 kt HW 2.3 kt RCW
W.Rank290° ranks 14
Current wind is below 290° avg. (7.2)
Visibility9999 m
Phenomena:N/A
Clouds:N/A
Expected CloudBase > 5,200 ft AGL from Temp-Dew spread
CeilingNone
Temp23°C (ISA +9)
Dew Point10°C (44% RH)
AAT22.0°C
QNH1021 hPa
Density Alt1,552 ft
Elevation587 ft
Report Wrong Elevation
Raw Report
LFOA 221500Z AUTO 29003KT 220V030 CAVOK 23/10 Q1021=

Extra information for LFOA:More info

Metar Taf Metar & Taf Last 4 Metars F.Rules Stats Wind Profile Meteogram Temp Stats Airport Information Weather charts Add Link Nearby VenuesMetar ALERT Operation Metar Decoded Social comments